createdAt,value
2023-01-09T00:00:00.717Z,0
2023-01-09T00:05:00.818Z,0
2023-01-09T00:10:00.701Z,0
2023-01-09T00:15:00.709Z,0
2023-01-09T00:20:00.686Z,0
2023-01-09T00:25:00.704Z,0
2023-01-09T00:30:00.664Z,0
2023-01-09T00:35:00.676Z,0
2023-01-09T00:40:00.694Z,0
2023-01-09T00:45:00.687Z,0
2023-01-09T00:50:00.686Z,0
2023-01-09T00:55:00.658Z,0
2023-01-09T01:00:00.706Z,0
2023-01-09T01:05:00.716Z,0
2023-01-09T01:10:00.723Z,0
2023-01-09T01:15:01.327Z,0
2023-01-09T01:20:00.686Z,0
2023-01-09T01:25:00.681Z,0
2023-01-09T01:30:00.792Z,0
2023-01-09T01:35:00.813Z,0
2023-01-09T01:40:00.727Z,0
2023-01-09T01:45:00.671Z,0
2023-01-09T01:50:00.731Z,0
2023-01-09T01:55:00.650Z,0
2023-01-09T02:00:00.725Z,0
2023-01-09T02:05:00.721Z,0
2023-01-09T02:10:00.729Z,0
2023-01-09T02:15:00.730Z,0
2023-01-09T02:20:00.658Z,0
2023-01-09T02:25:00.865Z,0
2023-01-09T02:30:00.769Z,0
2023-01-09T02:35:00.685Z,0
2023-01-09T02:40:00.681Z,0
2023-01-09T02:45:00.693Z,0
2023-01-09T02:50:00.648Z,0
2023-01-09T02:55:01.024Z,0
2023-01-09T03:00:00.786Z,0
2023-01-09T03:05:00.720Z,0
2023-01-09T03:10:00.644Z,0
2023-01-09T03:15:00.751Z,0
2023-01-09T03:20:00.734Z,0
2023-01-09T03:25:00.687Z,0
2023-01-09T03:30:00.683Z,0
2023-01-09T03:35:01.648Z,0
2023-01-09T03:40:00.686Z,0
2023-01-09T03:45:00.692Z,0
2023-01-09T03:50:00.671Z,0
2023-01-09T03:55:00.693Z,0
2023-01-09T04:00:00.810Z,0
2023-01-09T04:05:00.714Z,0
2023-01-09T04:10:00.762Z,0
2023-01-09T04:15:00.879Z,0
2023-01-09T04:20:00.740Z,0
2023-01-09T04:25:00.645Z,0
2023-01-09T04:30:00.758Z,0
2023-01-09T04:35:00.691Z,0
2023-01-09T04:40:00.743Z,0
2023-01-09T04:45:00.732Z,0
2023-01-09T04:50:00.694Z,0
2023-01-09T04:55:00.689Z,0
2023-01-09T05:00:00.789Z,0
2023-01-09T05:05:00.681Z,0
2023-01-09T05:10:00.661Z,0
2023-01-09T05:15:00.738Z,0
2023-01-09T05:20:00.723Z,0
2023-01-09T05:25:01.163Z,0
2023-01-09T05:30:01.166Z,0
2023-01-09T05:35:00.710Z,0
2023-01-09T05:40:00.661Z,0
2023-01-09T05:45:00.737Z,0
2023-01-09T05:50:00.713Z,0
2023-01-09T05:55:00.667Z,0
2023-01-09T06:00:00.688Z,0
2023-01-09T06:05:00.656Z,0
2023-01-09T06:10:00.756Z,0
2023-01-09T06:15:00.751Z,0
2023-01-09T06:20:00.734Z,0
2023-01-09T06:25:00.723Z,0
2023-01-09T06:30:00.665Z,0
2023-01-09T06:35:00.719Z,0
2023-01-09T06:40:00.740Z,0
2023-01-09T06:45:00.762Z,0
2023-01-09T06:50:00.660Z,0
2023-01-09T06:55:00.666Z,0
2023-01-09T07:00:00.755Z,0
2023-01-09T07:05:00.859Z,0
2023-01-09T07:10:01.349Z,3
2023-01-09T07:15:00.675Z,3
2023-01-09T07:20:00.726Z,4
2023-01-09T07:25:00.707Z,6
2023-01-09T07:30:00.853Z,9
2023-01-09T07:35:00.732Z,25
2023-01-09T07:40:00.707Z,46
2023-01-09T07:45:01.265Z,78
2023-01-09T07:50:00.773Z,92
2023-01-09T07:55:01.177Z,78
2023-01-09T08:00:00.743Z,117
2023-01-09T08:05:00.807Z,181
2023-01-09T08:10:00.723Z,180
2023-01-09T08:15:00.729Z,129
2023-01-09T08:20:00.690Z,179
2023-01-09T08:25:00.923Z,239
2023-01-09T08:30:00.678Z,249
2023-01-09T08:35:00.814Z,290
2023-01-09T08:40:00.697Z,206
2023-01-09T08:45:00.665Z,301
2023-01-09T08:50:00.641Z,344
2023-01-09T08:55:00.677Z,268
2023-01-09T09:00:00.652Z,304
2023-01-09T09:05:00.644Z,307
2023-01-09T09:10:00.662Z,345
2023-01-09T09:15:00.753Z,707
2023-01-09T09:20:00.690Z,628
2023-01-09T09:25:00.680Z,552
2023-01-09T09:30:00.856Z,621
2023-01-09T09:35:00.779Z,457
2023-01-09T09:40:09.621Z,453
2023-01-09T09:45:01.082Z,358
2023-01-09T09:50:00.786Z,404
2023-01-09T09:55:00.764Z,460
2023-01-09T10:00:00.778Z,591
2023-01-09T10:05:00.693Z,1476
2023-01-09T10:10:00.858Z,1416
2023-01-09T10:15:00.847Z,1700
2023-01-09T10:20:00.670Z,1345
2023-01-09T10:25:00.738Z,1115
2023-01-09T10:30:00.708Z,1081
2023-01-09T10:35:00.671Z,2223
2023-01-09T10:40:00.813Z,888
2023-01-09T10:45:01.015Z,787
2023-01-09T10:50:00.711Z,787
2023-01-09T10:55:01.391Z,613
2023-01-09T11:00:00.717Z,808
2023-01-09T11:05:00.726Z,1157
2023-01-09T11:10:00.856Z,2803
2023-01-09T11:15:00.915Z,3189
2023-01-09T11:20:00.716Z,2500
2023-01-09T11:25:00.756Z,2855
2023-01-09T11:30:00.701Z,2501
2023-01-09T11:35:00.689Z,3194
2023-01-09T11:40:00.816Z,4153
2023-01-09T11:45:00.744Z,6044
2023-01-09T11:50:00.713Z,6797
2023-01-09T11:55:01.530Z,5774
2023-01-09T12:00:00.713Z,5774
2023-01-09T12:05:00.860Z,5144
2023-01-09T12:10:00.699Z,4568
2023-01-09T12:15:00.759Z,4753
2023-01-09T12:20:00.732Z,5733
2023-01-09T12:25:00.709Z,17422
2023-01-09T12:30:00.730Z,12325
2023-01-09T12:35:00.732Z,14292
2023-01-09T12:40:00.877Z,10228
2023-01-09T12:45:00.699Z,11722
2023-01-09T12:50:00.813Z,6242
2023-01-09T12:55:00.718Z,5970
2023-01-09T13:00:00.679Z,7452
2023-01-09T13:05:00.736Z,2496
2023-01-09T13:10:00.677Z,1349
2023-01-09T13:15:00.754Z,811
2023-01-09T13:20:01.041Z,1055
2023-01-09T13:25:00.703Z,908
2023-01-09T13:30:00.713Z,1942
2023-01-09T13:35:00.827Z,1142
2023-01-09T13:40:00.703Z,1324
2023-01-09T13:45:00.667Z,1312
2023-01-09T13:50:01.191Z,824
2023-01-09T13:55:00.696Z,616
2023-01-09T14:00:00.734Z,694
2023-01-09T14:05:00.695Z,1269
2023-01-09T14:10:00.728Z,2058
2023-01-09T14:15:00.875Z,3551
2023-01-09T14:20:01.361Z,4708
2023-01-09T14:25:00.695Z,5425
2023-01-09T14:30:00.838Z,4855
2023-01-09T14:35:00.727Z,4313
2023-01-09T14:40:00.849Z,3381
2023-01-09T14:45:00.724Z,6917
2023-01-09T14:50:00.771Z,3354
2023-01-09T14:55:01.409Z,6448
2023-01-09T15:00:00.736Z,1956
2023-01-09T15:05:00.735Z,1932
2023-01-09T15:10:00.680Z,1709
2023-01-09T15:15:00.690Z,1353
2023-01-09T15:20:00.738Z,1067
2023-01-09T15:25:00.815Z,948
2023-01-09T15:30:00.691Z,747
2023-01-09T15:35:01.241Z,586
2023-01-09T15:40:00.718Z,310
2023-01-09T15:45:00.700Z,205
2023-01-09T15:50:00.726Z,158
2023-01-09T15:55:00.764Z,110
2023-01-09T16:00:00.877Z,71
2023-01-09T16:05:00.756Z,43
2023-01-09T16:10:01.396Z,22
2023-01-09T16:15:00.836Z,10
2023-01-09T16:20:00.901Z,6
2023-01-09T16:25:00.945Z,4
2023-01-09T16:30:00.816Z,3
2023-01-09T16:35:00.735Z,2
2023-01-09T16:40:00.745Z,2
2023-01-09T16:45:00.714Z,0
2023-01-09T16:50:00.841Z,0
2023-01-09T16:55:00.717Z,0
2023-01-09T17:00:01.190Z,0
2023-01-09T17:05:00.719Z,0
2023-01-09T17:10:00.738Z,0
2023-01-09T17:15:00.746Z,0
2023-01-09T17:20:00.761Z,0
2023-01-09T17:30:02.992Z,0
2023-01-09T17:35:00.776Z,0
2023-01-09T17:40:00.668Z,0
2023-01-09T17:45:00.775Z,0
2023-01-09T17:50:00.853Z,0
2023-01-09T17:55:00.728Z,0
2023-01-09T18:00:00.720Z,0
2023-01-09T18:05:00.769Z,0
2023-01-09T18:10:00.828Z,0
2023-01-09T18:15:00.693Z,0
2023-01-09T18:20:00.902Z,0
2023-01-09T18:25:00.657Z,0
2023-01-09T18:30:01.695Z,0
2023-01-09T18:35:00.714Z,0
2023-01-09T18:40:00.687Z,0
2023-01-09T18:45:01.173Z,0
2023-01-09T18:55:00.469Z,0
2023-01-09T19:00:00.498Z,0
2023-01-09T19:05:00.468Z,0
2023-01-09T19:10:00.458Z,0
2023-01-09T19:15:00.480Z,0
2023-01-09T19:20:00.496Z,0
2023-01-09T19:25:00.471Z,0
2023-01-09T19:30:00.471Z,0
2023-01-09T19:35:00.481Z,0
2023-01-09T19:40:00.459Z,0
2023-01-09T19:45:00.466Z,0
2023-01-09T19:50:00.467Z,0
2023-01-09T19:55:00.480Z,0
2023-01-09T20:00:00.476Z,0
2023-01-09T20:05:00.437Z,0
2023-01-09T20:10:00.473Z,0
2023-01-09T20:15:00.438Z,0
2023-01-09T20:20:00.472Z,0
2023-01-09T20:25:00.477Z,0
2023-01-09T20:30:00.481Z,0
2023-01-09T20:35:00.471Z,0
2023-01-09T20:40:00.465Z,0
2023-01-09T20:45:00.482Z,0
2023-01-09T20:50:00.461Z,0
2023-01-09T20:55:00.471Z,0
2023-01-09T21:00:00.474Z,0
2023-01-09T21:05:00.455Z,0
2023-01-09T21:10:00.461Z,0
2023-01-09T21:15:00.469Z,0
2023-01-09T21:20:00.462Z,0
2023-01-09T21:25:00.469Z,0
2023-01-09T21:30:00.467Z,0
2023-01-09T21:35:00.468Z,0
2023-01-09T21:40:00.463Z,0
2023-01-09T21:45:00.477Z,0
2023-01-09T21:50:00.488Z,0
2023-01-09T21:55:00.473Z,0
2023-01-09T22:00:00.470Z,0
2023-01-09T22:05:00.454Z,0
2023-01-09T22:10:00.452Z,0
2023-01-09T22:15:00.469Z,0
2023-01-09T22:20:00.462Z,0
2023-01-09T22:25:00.484Z,0
2023-01-09T22:30:00.465Z,0
2023-01-09T22:35:00.466Z,0
2023-01-09T22:40:00.462Z,0
2023-01-09T22:45:00.482Z,0
2023-01-09T22:50:00.461Z,0
2023-01-09T22:55:00.456Z,0
2023-01-09T23:00:00.494Z,0
2023-01-09T23:05:00.483Z,0
2023-01-09T23:10:00.499Z,0
2023-01-09T23:15:00.471Z,0
2023-01-09T23:20:00.463Z,0
2023-01-09T23:25:00.437Z,0
2023-01-09T23:30:00.472Z,0
2023-01-09T23:35:00.458Z,0
2023-01-09T23:40:00.511Z,0
2023-01-09T23:45:00.468Z,0
2023-01-09T23:50:00.460Z,0
2023-01-09T23:55:00.461Z,0
